Time;durP1;ratioP1;P1;durP2;ratioP2;P2;SDS_P1;SDS_P2;PMS_P1;PMS_P2;Temp;Humidity;BMP_temperature;BMP_pressure;BME280_temperature;BME280_humidity;BME280_pressure;Samples;Min_cycle;Max_cycle;Signal;HPM_P1;HPM_P2
2022/10/27 00:00:46;;;;;;;1.85;1.15;;;11.90;99.90;;;;;;5050292;28;20140;-64
2022/10/27 00:03:15;;;;;;;2.95;1.70;;;11.80;99.90;;;;;;5049175;28;20061;-69
2022/10/27 00:05:43;;;;;;;0.82;0.82;;;11.80;99.90;;;;;;5045810;28;20065;-64
2022/10/27 00:08:19;;;;;;;2.35;1.30;;;11.80;99.90;;;;;;5038937;28;20055;-64
2022/10/27 00:10:57;;;;;;;3.33;1.33;;;11.80;99.90;;;;;;5046050;28;20136;-64
2022/10/27 00:13:25;;;;;;;4.18;1.40;;;11.80;99.90;;;;;;5049696;28;20140;-63
2022/10/27 00:16:00;;;;;;;5.13;1.55;;;11.80;99.90;;;;;;5041308;28;20045;-64
2022/10/27 00:18:27;;;;;;;7.30;2.13;;;11.80;99.90;;;;;;5045020;28;20406;-64
2022/10/27 00:21:03;;;;;;;1.52;1.20;;;11.80;99.90;;;;;;5038753;28;20053;-65
2022/10/27 00:23:30;;;;;;;5.30;2.45;;;11.80;99.90;;;;;;5046962;28;20144;-64
2022/10/27 00:25:59;;;;;;;3.42;1.55;;;11.80;99.90;;;;;;5046815;28;20060;-67
2022/10/27 00:28:26;;;;;;;2.17;1.35;;;11.80;99.90;;;;;;5047777;28;20055;-65
2022/10/27 00:30:58;;;;;;;3.03;1.55;;;11.80;99.90;;;;;;5050407;28;20051;-67
2022/10/27 00:33:25;;;;;;;4.57;2.03;;;11.80;99.90;;;;;;5038915;28;20045;-65
2022/10/27 00:35:52;;;;;;;3.85;1.20;;;11.80;99.90;;;;;;5049218;28;20485;-67
2022/10/27 00:38:21;;;;;;;2.60;1.30;;;11.80;99.90;;;;;;5050299;28;20045;-63
2022/10/27 00:40:48;;;;;;;3.85;2.05;;;11.80;99.90;;;;;;5047192;28;20068;-64
2022/10/27 00:43:26;;;;;;;3.30;1.60;;;11.70;99.90;;;;;;5050767;28;20041;-64
2022/10/27 00:45:57;;;;;;;5.43;1.50;;;11.70;99.90;;;;;;5044578;28;20599;-63
2022/10/27 00:48:24;;;;;;;;;;;11.70;99.90;;;;;;5040469;28;20135;-66
2022/10/27 00:50:52;;;;;;;4.75;1.95;;;11.70;99.90;;;;;;5049870;28;19921;-63
2022/10/27 00:53:19;;;;;;;1.13;1.08;;;11.70;99.90;;;;;;5050644;28;20045;-64
2022/10/27 00:55:46;;;;;;;2.45;1.80;;;11.70;99.90;;;;;;5049957;28;20072;-68
2022/10/27 00:58:15;;;;;;;2.17;1.65;;;11.70;99.90;;;;;;5040152;28;20045;-64
2022/10/27 01:00:42;;;;;;;3.23;1.00;;;11.60;99.90;;;;;;5040507;28;20529;-64
2022/10/27 01:03:13;;;;;;;9.55;1.95;;;11.50;99.90;;;;;;5049897;28;20300;-65
2022/10/27 01:05:41;;;;;;;;;;;11.50;99.90;;;;;;5043290;28;20056;-63
2022/10/27 01:08:08;;;;;;;2.28;1.67;;;11.40;99.90;;;;;;5043894;28;19921;-65
2022/10/27 01:10:35;;;;;;;3.92;1.92;;;11.40;99.90;;;;;;5043050;28;20041;-65
2022/10/27 01:13:02;;;;;;;3.78;2.97;;;11.30;99.90;;;;;;5047370;28;20051;-63
2022/10/27 01:15:37;;;;;;;7.22;2.97;;;11.20;99.90;;;;;;5047792;28;20048;-68
2022/10/27 01:18:13;;;;;;;2.55;1.75;;;11.10;99.90;;;;;;5044823;28;20076;-63
2022/10/27 01:21:12;;;;;;;1.63;1.52;;;11.10;99.90;;;;;;5045644;28;20132;-63
2022/10/27 01:23:57;;;;;;;2.90;1.38;;;11.00;99.90;;;;;;5044482;28;20159;-64
2022/10/27 01:26:40;;;;;;;5.63;2.03;;;10.90;99.90;;;;;;5045376;28;20048;-73
2022/10/27 01:29:13;;;;;;;4.47;1.48;;;10.80;99.90;;;;;;5046889;28;20478;-63
2022/10/27 01:32:05;;;;;;;3.92;1.85;;;10.70;99.90;;;;;;5047072;28;20072;-65
2022/10/27 01:34:54;;;;;;;3.83;1.38;;;10.70;99.90;;;;;;5036112;28;20052;-65
2022/10/27 01:37:36;;;;;;;3.22;1.73;;;10.60;99.90;;;;;;5043248;28;20394;-65
2022/10/27 01:40:38;;;;;;;4.00;1.65;;;10.50;99.90;;;;;;5040533;28;20110;-66
2022/10/27 01:43:20;;;;;;;3.80;1.92;;;10.40;99.90;;;;;;5040165;28;20099;-64
2022/10/27 01:45:48;;;;;;;1.70;1.60;;;10.40;99.90;;;;;;5032528;28;20064;-63
2022/10/27 01:48:16;;;;;;;2.45;1.40;;;10.30;99.90;;;;;;5037555;28;20044;-63
2022/10/27 01:50:43;;;;;;;3.30;1.40;;;10.20;99.90;;;;;;5040670;28;20037;-63
2022/10/27 01:53:29;;;;;;;3.75;1.65;;;10.20;99.90;;;;;;5044685;28;20045;-65
2022/10/27 01:56:02;;;;;;;5.07;1.83;;;10.10;99.90;;;;;;5039352;28;20044;-63
2022/10/27 01:58:50;;;;;;;1.95;1.50;;;10.10;99.90;;;;;;5039933;28;20139;-69
2022/10/27 02:01:45;;;;;;;1.77;1.40;;;10.10;99.90;;;;;;5040555;28;21507;-64
2022/10/27 02:04:16;;;;;;;5.50;1.70;;;10.10;99.90;;;;;;5045835;28;20127;-63
2022/10/27 02:07:04;;;;;;;3.92;2.08;;;10.10;99.90;;;;;;5046424;28;20346;-63
2022/10/27 02:09:43;;;;;;;2.10;1.30;;;10.00;99.90;;;;;;5044301;28;20045;-69
2022/10/27 02:12:24;;;;;;;3.92;1.88;;;10.00;99.90;;;;;;5048966;28;20049;-64
2022/10/27 02:14:53;;;;;;;2.15;1.60;;;9.90;99.90;;;;;;5045832;28;20061;-63
2022/10/27 02:17:22;;;;;;;6.00;2.58;;;9.90;99.90;;;;;;5048957;28;20068;-64
2022/10/27 02:19:51;;;;;;;3.35;1.98;;;9.80;99.90;;;;;;5042393;28;20450;-70
2022/10/27 02:22:19;;;;;;;4.63;2.10;;;9.80;99.90;;;;;;5048190;28;20187;-65
2022/10/27 02:24:46;;;;;;;4.32;2.40;;;9.80;99.90;;;;;;5042836;28;20051;-64
2022/10/27 02:27:45;;;;;;;2.85;1.73;;;9.70;99.90;;;;;;5047921;28;20139;-65
2022/10/27 02:30:13;;;;;;;10.70;2.88;;;9.60;99.90;;;;;;5048415;28;20049;-63
2022/10/27 02:32:40;;;;;;;6.18;2.50;;;9.60;99.90;;;;;;5045712;28;20044;-63
2022/10/27 02:35:09;;;;;;;8.10;2.50;;;9.70;99.90;;;;;;5048108;28;20079;-63
2022/10/27 02:37:39;;;;;;;4.90;2.67;;;9.70;99.90;;;;;;5048318;28;20091;-64
2022/10/27 02:40:07;;;;;;;3.10;2.13;;;9.70;99.90;;;;;;5041948;28;20132;-68
2022/10/27 02:42:34;;;;;;;5.22;2.30;;;9.70;99.90;;;;;;5046946;28;20463;-64
2022/10/27 02:45:01;;;;;;;4.32;2.38;;;9.70;99.90;;;;;;5046114;28;20037;-73
2022/10/27 02:47:28;;;;;;;4.38;2.63;;;9.60;99.90;;;;;;5045806;28;20048;-67
2022/10/27 02:49:55;;;;;;;2.25;1.83;;;9.60;99.90;;;;;;5045309;28;20051;-64
2022/10/27 02:52:22;;;;;;;6.03;2.08;;;9.60;99.90;;;;;;5040151;28;20038;-66
2022/10/27 02:54:49;;;;;;;6.38;2.20;;;9.50;99.90;;;;;;5048187;28;20049;-63
2022/10/27 02:57:18;;;;;;;4.28;2.00;;;9.50;99.90;;;;;;5048513;28;20051;-70
2022/10/27 02:59:45;;;;;;;4.45;2.15;;;9.50;99.90;;;;;;5048512;28;20053;-66
2022/10/27 03:02:18;;;;;;;3.30;2.80;;;9.40;99.90;;;;;;5039179;28;20141;-65
2022/10/27 03:04:46;;;;;;;3.55;2.47;;;9.40;99.90;;;;;;5044063;28;20487;-63
2022/10/27 03:07:12;;;;;;;7.13;3.15;;;9.30;99.90;;;;;;5045778;28;20111;-64
2022/10/27 03:09:39;;;;;;;4.53;2.25;;;9.30;99.90;;;;;;5046198;28;20451;-63
2022/10/27 03:12:06;;;;;;;4.43;2.80;;;9.30;99.90;;;;;;5047087;28;20049;-63
2022/10/27 03:14:33;;;;;;;4.78;3.08;;;9.20;99.90;;;;;;5046017;28;20051;-68
2022/10/27 03:17:00;;;;;;;7.13;2.45;;;9.10;99.90;;;;;;5036914;28;20049;-63
2022/10/27 03:19:27;;;;;;;6.28;4.80;;;9.10;99.90;;;;;;5048109;28;20045;-66
2022/10/27 03:21:54;;;;;;;5.53;3.30;;;9.10;99.90;;;;;;5047549;28;20135;-64
2022/10/27 03:24:21;;;;;;;3.50;2.72;;;9.10;99.90;;;;;;5047416;28;20060;-68
2022/10/27 03:26:47;;;;;;;5.40;2.90;;;9.00;99.90;;;;;;5035380;28;20043;-65
2022/10/27 03:29:14;;;;;;;4.97;2.65;;;9.00;99.90;;;;;;5047649;28;20060;-75
2022/10/27 03:31:41;;;;;;;4.63;2.80;;;9.00;99.90;;;;;;5038551;28;20056;-71
2022/10/27 03:34:08;;;;;;;4.88;2.72;;;9.00;99.90;;;;;;5043920;28;20521;-63
2022/10/27 03:36:35;;;;;;;5.93;3.08;;;9.00;99.90;;;;;;5044422;28;20537;-69
2022/10/27 03:39:02;;;;;;;3.90;2.75;;;8.90;99.90;;;;;;5046376;28;20490;-71
2022/10/27 03:41:29;;;;;;;6.60;3.63;;;8.90;99.90;;;;;;5046310;28;20053;-65
2022/10/27 03:43:56;;;;;;;6.80;2.55;;;8.90;99.90;;;;;;5048211;28;20045;-67
2022/10/27 03:46:23;;;;;;;3.97;3.22;;;8.80;99.90;;;;;;5046776;28;20065;-64
2022/10/27 03:48:50;;;;;;;4.55;2.90;;;8.80;99.90;;;;;;5047270;28;20049;-66
2022/10/27 03:51:16;;;;;;;9.02;3.20;;;8.80;99.90;;;;;;5050418;28;20123;-66
2022/10/27 03:53:43;;;;;;;5.88;2.80;;;8.70;99.90;;;;;;5041754;28;20862;-63
2022/10/27 03:56:12;;;;;;;5.70;3.20;;;8.70;99.90;;;;;;5043910;28;20056;-70
2022/10/27 03:58:39;;;;;;;12.18;3.63;;;8.70;99.90;;;;;;5039530;28;20049;-66
2022/10/27 04:01:06;;;;;;;7.72;4.18;;;8.70;99.90;;;;;;5046476;28;20037;-63
2022/10/27 04:03:33;;;;;;;5.75;4.07;;;8.70;99.90;;;;;;5051627;28;20458;-65
2022/10/27 04:06:01;;;;;;;3.17;2.80;;;8.70;99.90;;;;;;5051202;28;20056;-64
2022/10/27 04:08:27;;;;;;;6.75;3.90;;;8.70;99.90;;;;;;5044892;28;20307;-67
2022/10/27 04:10:54;;;;;;;6.18;4.00;;;8.70;99.90;;;;;;5043850;28;20045;-64
2022/10/27 04:13:21;;;;;;;6.10;3.65;;;8.70;99.90;;;;;;5050720;28;20044;-68
2022/10/27 04:15:55;;;;;;;5.10;3.97;;;8.70;99.90;;;;;;5050529;28;20048;-63
2022/10/27 04:18:22;;;;;;;6.88;4.28;;;8.70;99.90;;;;;;5050378;28;20051;-66
2022/10/27 04:20:49;;;;;;;4.28;2.90;;;8.70;99.90;;;;;;5047671;28;20099;-63
2022/10/27 04:23:15;;;;;;;5.50;3.70;;;8.70;99.90;;;;;;5050455;28;20056;-64
2022/10/27 04:25:43;;;;;;;5.50;3.42;;;8.70;99.90;;;;;;5049070;28;20047;-64
2022/10/27 04:28:10;;;;;;;6.82;3.83;;;8.80;99.90;;;;;;5043344;28;20063;-64
2022/10/27 04:30:37;;;;;;;5.60;4.28;;;8.80;99.90;;;;;;5049177;28;20587;-63
2022/10/27 04:33:04;;;;;;;6.03;4.10;;;8.80;99.90;;;;;;5051407;28;20131;-65
2022/10/27 04:35:31;;;;;;;4.43;3.90;;;8.80;99.90;;;;;;5049326;28;20055;-66
2022/10/27 04:37:57;;;;;;;8.23;3.90;;;8.80;99.90;;;;;;5050072;28;20055;-63
2022/10/27 04:40:24;;;;;;;5.95;4.43;;;8.80;99.90;;;;;;5048376;28;20048;-63
2022/10/27 04:42:51;;;;;;;6.28;4.50;;;8.80;99.90;;;;;;5050423;28;20057;-64
2022/10/27 04:45:18;;;;;;;6.85;4.63;;;8.90;99.90;;;;;;5050116;28;20056;-64
2022/10/27 04:47:45;;;;;;;9.95;5.80;;;8.90;99.90;;;;;;5038693;28;20144;-66
2022/10/27 04:50:13;;;;;;;8.18;4.55;;;9.00;99.90;;;;;;5041871;28;20140;-65
2022/10/27 04:52:40;;;;;;;7.35;5.95;;;9.10;99.90;;;;;;5043080;28;20044;-67
2022/10/27 04:55:10;;;;;;;10.38;5.88;;;9.20;99.90;;;;;;5041514;28;20152;-63
2022/10/27 04:57:37;;;;;;;11.27;6.85;;;9.20;99.90;;;;;;5042224;28;20092;-63
2022/10/27 05:00:04;;;;;;;10.02;7.38;;;9.30;99.90;;;;;;5045109;28;20124;-63
2022/10/27 05:02:31;;;;;;;16.15;10.25;;;9.40;99.90;;;;;;5049568;28;20054;-65
2022/10/27 05:05:05;;;;;;;14.23;7.95;;;9.40;99.90;;;;;;5044947;28;20587;-71
2022/10/27 05:07:31;;;;;;;13.98;7.63;;;9.50;99.90;;;;;;5042772;28;20045;-71
2022/10/27 05:09:58;;;;;;;17.90;9.80;;;9.50;99.90;;;;;;5036364;28;20049;-71
2022/10/27 05:12:25;;;;;;;15.50;10.32;;;9.50;99.90;;;;;;5043416;28;20476;-73
2022/10/27 05:14:52;;;;;;;22.35;10.40;;;9.60;99.90;;;;;;5042713;28;20059;-64
2022/10/27 05:17:19;;;;;;;14.48;8.52;;;9.60;99.90;;;;;;5044308;28;20141;-64
2022/10/27 05:19:46;;;;;;;15.57;10.07;;;9.60;99.90;;;;;;5040473;28;20048;-69
2022/10/27 05:22:13;;;;;;;16.08;10.48;;;9.70;99.90;;;;;;5039431;28;20056;-67
2022/10/27 05:24:40;;;;;;;15.13;10.35;;;9.70;99.90;;;;;;5037112;28;20912;-65
2022/10/27 05:27:06;;;;;;;14.45;9.68;;;9.80;99.90;;;;;;5040234;28;20352;-68
2022/10/27 05:29:33;;;;;;;18.60;10.32;;;9.80;99.90;;;;;;5035601;28;20864;-67
2022/10/27 05:32:00;;;;;;;24.08;10.50;;;9.80;99.90;;;;;;5039484;28;20083;-65
2022/10/27 05:34:27;;;;;;;23.80;11.60;;;9.90;99.90;;;;;;5039231;28;20230;-68
2022/10/27 05:36:54;;;;;;;17.25;12.45;;;9.90;99.90;;;;;;5049668;28;20076;-64
2022/10/27 05:39:21;;;;;;;13.65;10.20;;;10.00;99.90;;;;;;5048847;28;20048;-67
2022/10/27 05:41:47;;;;;;;16.88;11.00;;;10.00;99.90;;;;;;5044020;28;20056;-64
2022/10/27 05:44:14;;;;;;;15.82;11.30;;;10.00;99.90;;;;;;5046149;28;20569;-70
2022/10/27 05:46:41;;;;;;;18.33;13.02;;;10.00;99.90;;;;;;5040649;28;20049;-68
2022/10/27 05:49:08;;;;;;;21.40;14.90;;;10.00;99.90;;;;;;5035336;28;20695;-66
2022/10/27 05:51:35;;;;;;;18.55;12.18;;;10.10;99.90;;;;;;5038849;28;20148;-65
2022/10/27 05:54:02;;;;;;;25.45;15.68;;;10.10;99.90;;;;;;5042369;28;20057;-69
2022/10/27 05:56:28;;;;;;;24.80;14.10;;;10.10;99.90;;;;;;5038806;28;20053;-68
2022/10/27 05:58:55;;;;;;;23.70;15.43;;;10.20;99.90;;;;;;5038913;28;20053;-67
2022/10/27 06:01:22;;;;;;;24.02;14.30;;;10.20;99.90;;;;;;5037399;28;20041;-64
2022/10/27 06:03:49;;;;;;;25.13;16.05;;;10.30;99.90;;;;;;5041997;28;20045;-67
2022/10/27 06:06:16;;;;;;;30.05;14.75;;;10.30;99.90;;;;;;5036318;28;20049;-73
2022/10/27 06:08:43;;;;;;;31.10;13.73;;;10.40;99.90;;;;;;5042295;28;20072;-65
2022/10/27 06:11:10;;;;;;;28.23;13.93;;;10.40;99.90;;;;;;5035644;28;20060;-68
2022/10/27 06:13:37;;;;;;;31.75;13.65;;;10.40;99.90;;;;;;5039669;28;20144;-64
2022/10/27 06:16:04;;;;;;;25.65;12.88;;;10.40;99.90;;;;;;5040547;28;20056;-63
2022/10/27 06:18:35;;;;;;;24.55;12.73;;;10.40;99.90;;;;;;5043361;28;20048;-67
2022/10/27 06:21:02;;;;;;;26.42;13.02;;;10.50;99.90;;;;;;5034865;28;20064;-65
2022/10/27 06:23:28;;;;;;;28.67;14.18;;;10.50;99.90;;;;;;5043206;28;20051;-73
2022/10/27 06:25:55;;;;;;;29.77;14.43;;;10.50;99.90;;;;;;5033759;28;20049;-65
2022/10/27 06:28:22;;;;;;;35.15;15.63;;;10.60;99.90;;;;;;5040660;28;20400;-63
2022/10/27 06:30:49;;;;;;;59.60;17.23;;;10.60;99.90;;;;;;5043397;28;20389;-68
2022/10/27 06:33:16;;;;;;;56.83;19.05;;;10.60;99.90;;;;;;5039785;28;20076;-69
2022/10/27 06:35:45;;;;;;;49.63;17.52;;;10.70;99.90;;;;;;5043206;28;20277;-63
2022/10/27 06:38:15;;;;;;;51.72;19.75;;;10.70;99.90;;;;;;5038412;28;20083;-64
2022/10/27 06:40:43;;;;;;;53.65;19.77;;;10.80;99.90;;;;;;5037335;28;20159;-68
2022/10/27 06:43:14;;;;;;;48.40;20.25;;;10.80;99.90;;;;;;5034389;28;20053;-66
2022/10/27 06:45:46;;;;;;;65.43;23.15;;;10.90;99.90;;;;;;5040313;28;20045;-67
2022/10/27 06:48:14;;;;;;;59.58;22.40;;;10.90;99.90;;;;;;5028107;28;20095;-69
2022/10/27 06:50:40;;;;;;;62.05;24.70;;;10.90;99.90;;;;;;5034889;28;20049;-63
2022/10/27 06:53:07;;;;;;;62.25;25.23;;;11.00;99.90;;;;;;5042464;28;20051;-66
2022/10/27 06:55:34;;;;;;;63.53;24.40;;;11.00;99.90;;;;;;5040251;28;20047;-63
2022/10/27 06:58:01;;;;;;;60.30;24.92;;;11.10;99.90;;;;;;5041520;28;20743;-67
2022/10/27 07:00:29;;;;;;;66.15;25.08;;;11.10;99.90;;;;;;5039048;28;20045;-71
2022/10/27 07:02:56;;;;;;;66.85;28.77;;;11.10;99.90;;;;;;5043660;28;20095;-63
2022/10/27 07:05:22;;;;;;;79.75;29.83;;;11.20;99.90;;;;;;5036965;28;20132;-65
2022/10/27 07:07:51;;;;;;;70.20;28.60;;;11.20;99.90;;;;;;5039335;28;20404;-74
2022/10/27 07:10:19;;;;;;;71.32;28.73;;;11.30;99.90;;;;;;5037791;28;20049;-65
2022/10/27 07:13:00;;;;;;;105.32;35.53;;;11.30;99.90;;;;;;5039884;28;20495;-65
2022/10/27 07:15:32;;;;;;;95.63;31.85;;;11.40;99.90;;;;;;5042477;28;20041;-65
2022/10/27 07:18:02;;;;;;;83.82;31.75;;;11.40;99.90;;;;;;5045009;28;20066;-69
2022/10/27 07:20:32;;;;;;;;;;;11.50;99.90;;;;;;5046659;28;20053;-72
2022/10/27 07:22:59;;;;;;;97.53;34.42;;;11.50;99.90;;;;;;5042289;28;19947;-64
2022/10/27 07:25:27;;;;;;;87.20;33.35;;;11.60;99.90;;;;;;5037465;28;20047;-68
2022/10/27 07:27:54;;;;;;;85.25;34.63;;;11.60;99.90;;;;;;5047822;28;20478;-64
2022/10/27 07:30:28;;;;;;;88.82;32.42;;;11.60;99.90;;;;;;5039916;28;20049;-66
2022/10/27 07:32:56;;;;;;;86.30;34.25;;;11.70;99.90;;;;;;5043101;28;20047;-67
2022/10/27 07:35:23;;;;;;;82.25;33.90;;;11.70;99.90;;;;;;5045603;28;20049;-67
2022/10/27 07:37:50;;;;;;;86.20;33.95;;;11.70;99.90;;;;;;5042969;28;20045;-68
2022/10/27 07:40:20;;;;;;;91.97;34.33;;;11.80;99.90;;;;;;5037773;28;20067;-67
2022/10/27 07:42:52;;;;;;;92.50;38.17;;;11.80;99.90;;;;;;5040165;28;20045;-66
2022/10/27 07:45:22;;;;;;;81.20;37.38;;;11.90;99.90;;;;;;5048213;28;20106;-66
2022/10/27 07:47:51;;;;;;;85.03;34.08;;;11.90;99.90;;;;;;5045865;28;20598;-68
2022/10/27 07:50:20;;;;;;;74.93;38.17;;;11.90;99.90;;;;;;5045615;28;20064;-67
2022/10/27 07:52:54;;;;;;;85.20;36.50;;;11.90;99.90;;;;;;5044576;28;20045;-67
2022/10/27 07:55:23;;;;;;;87.38;38.60;;;12.00;99.90;;;;;;5043817;28;20047;-71
2022/10/27 07:58:04;;;;;;;77.43;36.38;;;12.00;99.90;;;;;;5045540;28;20391;-65
2022/10/27 08:00:33;;;;;;;74.15;32.92;;;12.00;99.90;;;;;;5041895;28;20071;-65
2022/10/27 08:03:01;;;;;;;78.05;36.05;;;12.00;99.90;;;;;;5038771;28;20043;-65
2022/10/27 08:05:29;;;;;;;71.18;31.50;;;12.00;99.90;;;;;;5043611;28;20150;-67
2022/10/27 08:08:02;;;;;;;83.53;32.83;;;12.00;99.90;;;;;;5043587;28;20037;-67
2022/10/27 08:10:31;;;;;;;73.55;34.45;;;12.00;99.90;;;;;;5044714;28;20103;-67
2022/10/27 08:12:58;;;;;;;68.40;32.15;;;12.00;99.90;;;;;;5043713;28;20427;-69
2022/10/27 08:15:25;;;;;;;59.55;30.48;;;12.00;99.90;;;;;;5042703;28;20059;-63
2022/10/27 08:17:58;;;;;;;72.78;34.78;;;12.00;99.90;;;;;;5044541;28;20091;-65
2022/10/27 08:20:26;;;;;;;70.28;30.60;;;12.00;99.90;;;;;;5036500;28;20103;-66
2022/10/27 08:22:58;;;;;;;66.93;31.02;;;12.00;99.90;;;;;;5045346;28;20152;-64
2022/10/27 08:25:26;;;;;;;63.30;31.63;;;12.00;99.90;;;;;;5037673;28;20049;-66
2022/10/27 08:27:53;;;;;;;72.72;30.58;;;12.00;99.90;;;;;;5041936;28;20051;-64
2022/10/27 08:30:21;;;;;;;72.85;31.38;;;12.00;99.90;;;;;;5044311;28;20091;-72
2022/10/27 08:32:49;;;;;;;65.50;28.50;;;12.00;99.90;;;;;;5042611;28;20344;-66
2022/10/27 08:35:17;;;;;;;57.40;27.85;;;12.00;99.90;;;;;;5042701;28;20538;-69
2022/10/27 08:37:43;;;;;;;60.95;27.13;;;12.00;99.90;;;;;;5040912;28;20514;-64
2022/10/27 08:40:10;;;;;;;54.10;26.50;;;11.90;99.90;;;;;;5040507;28;20055;-66
2022/10/27 08:42:46;;;;;;;53.00;26.42;;;11.90;99.90;;;;;;5036268;28;20049;-75
2022/10/27 08:45:13;;;;;;;55.58;26.50;;;11.90;99.90;;;;;;5039761;28;20128;-66
2022/10/27 08:47:41;;;;;;;59.58;27.58;;;11.90;99.90;;;;;;5043910;28;20051;-65
2022/10/27 08:50:10;;;;;;;55.95;28.10;;;11.90;99.90;;;;;;5044794;28;20499;-69
2022/10/27 08:52:41;;;;;;;48.92;22.90;;;11.90;99.90;;;;;;5040151;28;20135;-70
2022/10/27 08:55:11;;;;;;;42.65;26.70;;;11.90;99.90;;;;;;5043197;28;20111;-70
2022/10/27 08:57:44;;;;;;;52.75;27.45;;;11.80;99.90;;;;;;5045405;28;20238;-64
2022/10/27 09:00:12;;;;;;;48.90;25.70;;;11.80;99.90;;;;;;5044574;28;20049;-63
2022/10/27 09:03:20;;;;;;;50.03;26.00;;;11.90;99.90;;;;;;5041878;28;20056;-70
2022/10/27 09:06:09;;;;;;;46.42;21.45;;;11.80;99.90;;;;;;5035120;28;20145;-65
2022/10/27 09:08:40;;;;;;;39.97;21.58;;;11.80;99.90;;;;;;5040018;28;20071;-64
2022/10/27 09:11:58;;;;;;;40.53;23.80;;;11.80;99.90;;;;;;5042423;28;20057;-65
2022/10/27 09:14:46;;;;;;;40.42;21.83;;;11.80;99.90;;;;;;5013302;28;20052;-66
2022/10/27 09:17:19;;;;;;;30.88;17.58;;;11.80;99.90;;;;;;5044333;28;20055;-65
2022/10/27 09:20:00;;;;;;;36.33;20.60;;;11.80;99.90;;;;;;5039707;28;20737;-66
2022/10/27 09:22:29;;;;;;;32.72;18.83;;;11.80;99.90;;;;;;5044124;28;20537;-70
2022/10/27 09:25:01;;;;;;;35.90;20.10;;;11.80;99.90;;;;;;5038570;28;20056;-66
2022/10/27 09:27:28;;;;;;;40.13;21.45;;;11.90;99.90;;;;;;5037012;28;20067;-65
2022/10/27 09:30:00;;;;;;;37.22;19.25;;;11.90;99.90;;;;;;5036657;28;20053;-64
2022/10/27 09:32:32;;;;;;;35.13;20.83;;;11.90;99.90;;;;;;5038606;28;20474;-68
2022/10/27 09:35:02;;;;;;;28.77;17.15;;;11.90;99.90;;;;;;5035293;28;20048;-65
2022/10/27 09:37:39;;;;;;;27.15;15.55;;;11.80;99.90;;;;;;5038955;28;20457;-64
2022/10/27 09:40:16;;;;;;;24.90;17.33;;;11.90;99.90;;;;;;5038386;28;20092;-64
2022/10/27 09:42:43;;;;;;;30.67;16.17;;;11.90;99.90;;;;;;5037476;28;20130;-63
2022/10/27 09:45:17;;;;;;;36.60;18.25;;;12.00;99.90;;;;;;5041110;28;20049;-64
2022/10/27 09:47:48;;;;;;;24.55;16.58;;;12.00;99.90;;;;;;5041937;28;20135;-65
2022/10/27 09:50:23;;;;;;;27.85;17.48;;;12.00;99.90;;;;;;5037506;28;20072;-64
2022/10/27 09:52:51;;;;;;;27.20;17.58;;;12.00;99.90;;;;;;5042650;28;20061;-68
2022/10/27 09:55:19;;;;;;;28.02;17.92;;;12.20;99.90;;;;;;5044917;28;20044;-64
2022/10/27 09:57:48;;;;;;;29.52;16.65;;;12.20;99.90;;;;;;5040001;28;20041;-65
2022/10/27 10:00:15;;;;;;;30.33;17.13;;;12.30;99.90;;;;;;5040033;28;20045;-77
2022/10/27 10:02:56;;;;;;;33.97;20.15;;;12.30;99.90;;;;;;5035785;28;20053;-65
2022/10/27 10:05:26;;;;;;;25.83;16.08;;;12.30;99.90;;;;;;5041765;28;20058;-64
2022/10/27 10:08:20;;;;;;;23.27;14.77;;;12.30;99.90;;;;;;5040412;28;20045;-65
2022/10/27 10:11:22;;;;;;;22.42;12.82;;;12.40;99.90;;;;;;5040134;28;20068;-72
2022/10/27 10:14:00;;;;;;;19.95;13.75;;;12.40;99.90;;;;;;5045075;28;20044;-65
2022/10/27 10:16:28;;;;;;;21.50;14.73;;;12.40;99.90;;;;;;5042016;28;20076;-65
2022/10/27 10:19:14;;;;;;;24.30;15.30;;;12.50;99.90;;;;;;5037603;28;20037;-64
2022/10/27 10:22:01;;;;;;;16.73;12.57;;;12.50;99.90;;;;;;5037926;28;20127;-64
2022/10/27 10:24:33;;;;;;;14.48;11.82;;;12.60;99.90;;;;;;5031539;28;20049;-73
2022/10/27 10:27:04;;;;;;;16.83;12.35;;;12.70;99.90;;;;;;5039341;28;20048;-66
2022/10/27 10:29:39;;;;;;;14.40;10.48;;;12.70;99.90;;;;;;5035536;28;20455;-68
2022/10/27 10:32:11;;;;;;;12.63;10.00;;;12.80;99.90;;;;;;5038783;28;20049;-64
2022/10/27 10:34:39;;;;;;;13.68;11.63;;;12.80;99.90;;;;;;5035910;28;20077;-67
2022/10/27 10:37:30;;;;;;;26.88;11.73;;;12.80;99.90;;;;;;5036831;28;20055;-66
2022/10/27 10:40:09;;;;;;;12.98;8.75;;;12.90;99.90;;;;;;5042832;28;20075;-68
2022/10/27 10:42:36;;;;;;;12.60;9.25;;;13.00;99.90;;;;;;5045232;28;20071;-67
2022/10/27 10:45:19;;;;;;;13.70;9.35;;;13.10;99.90;;;;;;5034911;28;20492;-64
2022/10/27 10:47:50;;;;;;;11.95;9.40;;;13.20;99.90;;;;;;5040795;28;20461;-71
2022/10/27 10:50:17;;;;;;;11.35;7.93;;;13.20;99.90;;;;;;5043942;28;20049;-65
2022/10/27 10:52:51;;;;;;;8.02;7.22;;;13.30;99.90;;;;;;5042284;28;20061;-69
2022/10/27 10:55:25;;;;;;;13.77;8.57;;;13.30;99.90;;;;;;5040290;28;20055;-67
2022/10/27 10:57:54;;;;;;;10.07;7.50;;;13.40;99.90;;;;;;5038906;28;20060;-68
2022/10/27 11:00:22;;;;;;;12.80;8.27;;;13.50;99.90;;;;;;5041135;28;20057;-70
2022/10/27 11:03:22;;;;;;;10.00;8.18;;;13.60;99.90;;;;;;5037747;28;20479;-65
2022/10/27 11:05:57;;;;;;;13.10;7.75;;;13.60;99.90;;;;;;5020522;28;20053;-67
2022/10/27 11:08:37;;;;;;;14.32;7.95;;;13.60;99.90;;;;;;5039443;28;20057;-64
2022/10/27 11:11:19;;;;;;;8.63;7.38;;;13.60;99.90;;;;;;5042471;28;20048;-65
2022/10/27 11:13:54;;;;;;;12.32;8.23;;;13.60;99.90;;;;;;5008694;28;20064;-65
2022/10/27 11:16:21;;;;;;;11.38;8.50;;;13.70;99.90;;;;;;5040011;28;20041;-64
2022/10/27 11:19:01;;;;;;;12.10;9.48;;;13.70;99.90;;;;;;5043800;28;20099;-65
2022/10/27 11:21:47;;;;;;;11.15;9.13;;;13.70;99.90;;;;;;5041583;28;20498;-64
2022/10/27 11:24:14;;;;;;;10.02;6.95;;;13.70;99.90;;;;;;5041696;28;20136;-66
2022/10/27 11:27:00;;;;;;;11.13;7.68;;;13.70;99.90;;;;;;5028790;28;20041;-67
2022/10/27 11:29:38;;;;;;;8.85;7.55;;;13.70;99.90;;;;;;5035708;28;20480;-64
2022/10/27 11:32:21;;;;;;;10.57;8.05;;;13.60;99.90;;;;;;5045123;28;20499;-65
2022/10/27 11:35:00;;;;;;;10.13;6.88;;;13.70;99.90;;;;;;5043134;28;20131;-65
2022/10/27 11:37:30;;;;;;;10.00;7.65;;;13.70;99.90;;;;;;5037237;28;20048;-66
2022/10/27 11:40:21;;;;;;;14.45;7.00;;;13.70;99.90;;;;;;5038864;28;20063;-65
2022/10/27 11:43:14;;;;;;;10.18;6.95;;;13.80;99.90;;;;;;5044277;28;20041;-64
2022/10/27 11:46:16;;;;;;;11.27;6.65;;;13.80;99.90;;;;;;5040276;28;20107;-67
2022/10/27 11:49:01;;;;;;;11.35;7.40;;;13.80;99.90;;;;;;5032189;28;20053;-69
2022/10/27 11:52:16;;;;;;;10.05;7.07;;;13.90;99.90;;;;;;5041281;28;20474;-69
2022/10/27 11:54:44;;;;;;;9.10;7.40;;;13.90;99.90;;;;;;4979043;28;20054;-64
2022/10/27 11:57:20;;;;;;;7.68;6.13;;;13.90;99.90;;;;;;4982437;28;20118;-72
2022/10/27 12:00:13;;;;;;;11.90;7.13;;;13.90;99.90;;;;;;5028620;28;20044;-68
2022/10/27 12:02:51;;;;;;;9.88;6.63;;;13.90;99.90;;;;;;5044712;28;20049;-65
2022/10/27 12:05:27;;;;;;;9.30;6.72;;;13.90;99.90;;;;;;5045226;28;20450;-66
2022/10/27 12:07:59;;;;;;;8.93;6.95;;;13.90;99.90;;;;;;5045608;28;20377;-65
2022/10/27 12:10:45;;;;;;;13.10;7.05;;;13.90;99.90;;;;;;5041124;28;20046;-67
2022/10/27 12:13:24;;;;;;;11.48;6.63;;;14.00;99.90;;;;;;5037991;28;20048;-64
2022/10/27 12:16:07;;;;;;;6.38;5.60;;;14.00;99.90;;;;;;5043989;28;20053;-65
2022/10/27 12:18:50;;;;;;;6.13;5.38;;;14.10;99.90;;;;;;5036343;28;20080;-65
2022/10/27 12:21:38;;;;;;;8.10;4.57;;;14.10;99.90;;;;;;5042474;28;20507;-65
2022/10/27 12:24:11;;;;;;;5.57;3.33;;;14.20;99.90;;;;;;5037543;28;20072;-65
2022/10/27 12:27:04;;;;;;;4.22;3.80;;;14.20;99.90;;;;;;5044693;28;20110;-70
2022/10/27 12:29:36;;;;;;;5.28;4.28;;;14.20;99.90;;;;;;5044281;28;20051;-66
2022/10/27 12:32:11;;;;;;;8.50;3.90;;;14.30;99.90;;;;;;5042609;28;20049;-64
2022/10/27 12:34:57;;;;;;;8.18;4.38;;;14.30;99.90;;;;;;5038843;28;20143;-67
2022/10/27 12:38:00;;;;;;;7.05;4.75;;;14.30;99.90;;;;;;5045777;28;20129;-67
2022/10/27 12:40:34;;;;;;;8.45;5.13;;;14.30;99.90;;;;;;5035251;28;20045;-65
2022/10/27 12:43:15;;;;;;;5.53;4.93;;;14.30;99.90;;;;;;5045876;28;20044;-66
2022/10/27 12:46:17;;;;;;;5.68;4.55;;;14.30;99.90;;;;;;5043588;28;20586;-69
2022/10/27 12:48:58;;;;;;;7.43;4.82;;;14.30;99.90;;;;;;5035199;28;20143;-66
2022/10/27 12:51:49;;;;;;;13.18;5.68;;;14.30;99.90;;;;;;5045510;28;20053;-64
2022/10/27 12:54:37;;;;;;;6.20;5.35;;;14.40;99.90;;;;;;5045840;28;20053;-70
2022/10/27 12:57:22;;;;;;;9.00;5.53;;;14.40;99.90;;;;;;5035104;28;20038;-72
2022/10/27 13:00:13;;;;;;;7.32;5.30;;;14.40;99.90;;;;;;5036689;28;20037;-65
2022/10/27 13:02:56;;;;;;;6.13;5.45;;;14.40;99.90;;;;;;5041381;28;20457;-69
2022/10/27 13:06:02;;;;;;;5.75;5.15;;;14.40;99.90;;;;;;5035853;28;20068;-65
2022/10/27 13:08:44;;;;;;;7.68;5.50;;;14.40;99.90;;;;;;5042378;28;20048;-74